sensor_id;sensor_type;location;lat;lon;timestamp;P1;durP1;ratioP1;P2;durP2;ratioP2
19705;SDS011;10003;52.506;4.700;2023-05-23T00:00:13;11.27;;;6.97;;
19705;SDS011;10003;52.506;4.700;2023-05-23T00:02:41;14.43;;;6.43;;
19705;SDS011;10003;52.506;4.700;2023-05-23T00:05:10;15.83;;;7.70;;
19705;SDS011;10003;52.506;4.700;2023-05-23T00:07:40;11.13;;;7.70;;
19705;SDS011;10003;52.506;4.700;2023-05-23T00:10:09;10.00;;;7.13;;
19705;SDS011;10003;52.506;4.700;2023-05-23T00:12:39;14.37;;;6.47;;
19705;SDS011;10003;52.506;4.700;2023-05-23T00:15:08;10.53;;;6.20;;
19705;SDS011;10003;52.506;4.700;2023-05-23T00:17:36;10.90;;;5.97;;
19705;SDS011;10003;52.506;4.700;2023-05-23T00:20:06;17.27;;;7.87;;
19705;SDS011;10003;52.506;4.700;2023-05-23T00:22:36;8.70;;;5.40;;
19705;SDS011;10003;52.506;4.700;2023-05-23T00:25:08;10.47;;;6.77;;
19705;SDS011;10003;52.506;4.700;2023-05-23T00:27:38;12.07;;;5.27;;
19705;SDS011;10003;52.506;4.700;2023-05-23T00:30:07;7.47;;;4.33;;
19705;SDS011;10003;52.506;4.700;2023-05-23T00:32:35;8.80;;;5.37;;
19705;SDS011;10003;52.506;4.700;2023-05-23T00:35:04;19.97;;;6.67;;
19705;SDS011;10003;52.506;4.700;2023-05-23T00:37:33;16.53;;;6.83;;
19705;SDS011;10003;52.506;4.700;2023-05-23T00:40:01;22.33;;;5.73;;
19705;SDS011;10003;52.506;4.700;2023-05-23T00:42:30;10.23;;;4.53;;
19705;SDS011;10003;52.506;4.700;2023-05-23T00:45:00;17.57;;;7.93;;
19705;SDS011;10003;52.506;4.700;2023-05-23T00:47:29;12.33;;;7.63;;
19705;SDS011;10003;52.506;4.700;2023-05-23T00:49:57;8.73;;;6.27;;
19705;SDS011;10003;52.506;4.700;2023-05-23T00:52:26;18.57;;;7.77;;
19705;SDS011;10003;52.506;4.700;2023-05-23T00:54:54;11.50;;;6.13;;
19705;SDS011;10003;52.506;4.700;2023-05-23T00:57:22;8.63;;;6.23;;
19705;SDS011;10003;52.506;4.700;2023-05-23T00:59:51;14.80;;;7.47;;
19705;SDS011;10003;52.506;4.700;2023-05-23T01:02:21;13.83;;;5.33;;
19705;SDS011;10003;52.506;4.700;2023-05-23T01:04:50;8.63;;;4.97;;
19705;SDS011;10003;52.506;4.700;2023-05-23T01:07:19;12.47;;;5.40;;
19705;SDS011;10003;52.506;4.700;2023-05-23T01:09:48;15.80;;;6.77;;
19705;SDS011;10003;52.506;4.700;2023-05-23T01:12:19;9.27;;;5.80;;
19705;SDS011;10003;52.506;4.700;2023-05-23T01:14:55;19.53;;;6.30;;
19705;SDS011;10003;52.506;4.700;2023-05-23T01:17:28;18.23;;;6.87;;
19705;SDS011;10003;52.506;4.700;2023-05-23T01:19:59;10.03;;;6.13;;
19705;SDS011;10003;52.506;4.700;2023-05-23T01:22:37;16.70;;;6.10;;
19705;SDS011;10003;52.506;4.700;2023-05-23T01:25:10;7.80;;;4.33;;
19705;SDS011;10003;52.506;4.700;2023-05-23T01:27:48;8.70;;;5.33;;
19705;SDS011;10003;52.506;4.700;2023-05-23T01:30:18;10.67;;;4.03;;
19705;SDS011;10003;52.506;4.700;2023-05-23T01:32:47;15.53;;;4.67;;
19705;SDS011;10003;52.506;4.700;2023-05-23T01:35:19;6.00;;;3.67;;
19705;SDS011;10003;52.506;4.700;2023-05-23T01:37:50;8.83;;;4.60;;
19705;SDS011;10003;52.506;4.700;2023-05-23T01:40:18;7.47;;;4.63;;
19705;SDS011;10003;52.506;4.700;2023-05-23T01:42:48;14.93;;;4.63;;
19705;SDS011;10003;52.506;4.700;2023-05-23T01:45:17;13.53;;;6.13;;
19705;SDS011;10003;52.506;4.700;2023-05-23T01:47:46;8.83;;;3.57;;
19705;SDS011;10003;52.506;4.700;2023-05-23T01:50:14;7.90;;;4.10;;
19705;SDS011;10003;52.506;4.700;2023-05-23T01:52:43;7.70;;;4.20;;
19705;SDS011;10003;52.506;4.700;2023-05-23T01:55:13;11.60;;;4.30;;
19705;SDS011;10003;52.506;4.700;2023-05-23T01:57:50;15.40;;;5.87;;
19705;SDS011;10003;52.506;4.700;2023-05-23T02:00:19;10.73;;;5.63;;
19705;SDS011;10003;52.506;4.700;2023-05-23T02:02:47;10.93;;;4.93;;
19705;SDS011;10003;52.506;4.700;2023-05-23T02:05:16;8.77;;;4.30;;
19705;SDS011;10003;52.506;4.700;2023-05-23T02:07:44;8.97;;;4.10;;
19705;SDS011;10003;52.506;4.700;2023-05-23T02:10:13;8.67;;;3.23;;
19705;SDS011;10003;52.506;4.700;2023-05-23T02:12:41;11.20;;;4.17;;
19705;SDS011;10003;52.506;4.700;2023-05-23T02:15:11;10.57;;;4.23;;
19705;SDS011;10003;52.506;4.700;2023-05-23T02:17:40;11.30;;;3.80;;
19705;SDS011;10003;52.506;4.700;2023-05-23T02:20:08;8.80;;;3.90;;
19705;SDS011;10003;52.506;4.700;2023-05-23T02:22:37;8.83;;;4.77;;
19705;SDS011;10003;52.506;4.700;2023-05-23T02:25:06;6.63;;;4.10;;
19705;SDS011;10003;52.506;4.700;2023-05-23T02:27:36;10.73;;;4.47;;
19705;SDS011;10003;52.506;4.700;2023-05-23T02:30:05;7.77;;;4.20;;
19705;SDS011;10003;52.506;4.700;2023-05-23T02:32:35;13.13;;;4.17;;
19705;SDS011;10003;52.506;4.700;2023-05-23T02:35:04;14.90;;;5.40;;
19705;SDS011;10003;52.506;4.700;2023-05-23T02:37:33;5.27;;;3.87;;
19705;SDS011;10003;52.506;4.700;2023-05-23T02:40:01;6.53;;;3.77;;
19705;SDS011;10003;52.506;4.700;2023-05-23T02:42:32;5.00;;;3.30;;
19705;SDS011;10003;52.506;4.700;2023-05-23T02:45:01;5.63;;;3.00;;
19705;SDS011;10003;52.506;4.700;2023-05-23T02:47:29;6.93;;;3.73;;
19705;SDS011;10003;52.506;4.700;2023-05-23T02:49:59;6.10;;;3.27;;
19705;SDS011;10003;52.506;4.700;2023-05-23T02:52:28;8.20;;;4.23;;
19705;SDS011;10003;52.506;4.700;2023-05-23T02:54:56;11.23;;;3.97;;
19705;SDS011;10003;52.506;4.700;2023-05-23T02:57:25;10.20;;;4.10;;
19705;SDS011;10003;52.506;4.700;2023-05-23T02:59:53;9.97;;;3.90;;
19705;SDS011;10003;52.506;4.700;2023-05-23T03:02:22;9.47;;;4.27;;
19705;SDS011;10003;52.506;4.700;2023-05-23T03:04:51;8.07;;;4.63;;
19705;SDS011;10003;52.506;4.700;2023-05-23T03:07:22;9.63;;;4.07;;
19705;SDS011;10003;52.506;4.700;2023-05-23T03:09:54;23.57;;;4.93;;
19705;SDS011;10003;52.506;4.700;2023-05-23T03:12:22;7.57;;;4.10;;
19705;SDS011;10003;52.506;4.700;2023-05-23T03:14:51;7.30;;;4.07;;
19705;SDS011;10003;52.506;4.700;2023-05-23T03:17:19;10.03;;;4.67;;
19705;SDS011;10003;52.506;4.700;2023-05-23T03:19:47;10.20;;;3.67;;
19705;SDS011;10003;52.506;4.700;2023-05-23T03:22:16;8.43;;;4.77;;
19705;SDS011;10003;52.506;4.700;2023-05-23T03:24:46;11.87;;;4.40;;
19705;SDS011;10003;52.506;4.700;2023-05-23T03:27:14;9.70;;;5.00;;
19705;SDS011;10003;52.506;4.700;2023-05-23T03:29:43;6.40;;;3.40;;
19705;SDS011;10003;52.506;4.700;2023-05-23T03:32:11;24.63;;;4.77;;
19705;SDS011;10003;52.506;4.700;2023-05-23T03:34:40;12.37;;;6.00;;
19705;SDS011;10003;52.506;4.700;2023-05-23T03:37:08;6.23;;;4.83;;
19705;SDS011;10003;52.506;4.700;2023-05-23T03:39:37;7.73;;;4.00;;
19705;SDS011;10003;52.506;4.700;2023-05-23T03:42:07;12.73;;;6.43;;
19705;SDS011;10003;52.506;4.700;2023-05-23T03:44:35;7.00;;;5.30;;
19705;SDS011;10003;52.506;4.700;2023-05-23T03:47:03;10.73;;;5.40;;
19705;SDS011;10003;52.506;4.700;2023-05-23T03:49:32;11.90;;;6.13;;
19705;SDS011;10003;52.506;4.700;2023-05-23T03:52:01;9.47;;;6.23;;
19705;SDS011;10003;52.506;4.700;2023-05-23T03:54:29;9.83;;;5.60;;
19705;SDS011;10003;52.506;4.700;2023-05-23T03:56:58;9.50;;;7.00;;
19705;SDS011;10003;52.506;4.700;2023-05-23T03:59:28;13.87;;;5.47;;
19705;SDS011;10003;52.506;4.700;2023-05-23T04:01:56;10.37;;;6.73;;
19705;SDS011;10003;52.506;4.700;2023-05-23T04:04:26;9.13;;;4.70;;
19705;SDS011;10003;52.506;4.700;2023-05-23T04:06:55;9.70;;;5.07;;
19705;SDS011;10003;52.506;4.700;2023-05-23T04:09:23;14.63;;;8.13;;
19705;SDS011;10003;52.506;4.700;2023-05-23T04:11:51;8.43;;;5.60;;
19705;SDS011;10003;52.506;4.700;2023-05-23T04:14:20;11.77;;;6.33;;
19705;SDS011;10003;52.506;4.700;2023-05-23T04:16:50;9.73;;;5.37;;
19705;SDS011;10003;52.506;4.700;2023-05-23T04:19:18;15.73;;;8.47;;
19705;SDS011;10003;52.506;4.700;2023-05-23T04:21:47;12.67;;;7.87;;
19705;SDS011;10003;52.506;4.700;2023-05-23T04:24:15;11.43;;;6.57;;
19705;SDS011;10003;52.506;4.700;2023-05-23T04:26:44;8.50;;;7.10;;
19705;SDS011;10003;52.506;4.700;2023-05-23T04:29:12;14.13;;;7.37;;
19705;SDS011;10003;52.506;4.700;2023-05-23T04:31:41;13.50;;;7.67;;
19705;SDS011;10003;52.506;4.700;2023-05-23T04:34:13;10.40;;;5.57;;
19705;SDS011;10003;52.506;4.700;2023-05-23T04:36:42;10.23;;;5.80;;
19705;SDS011;10003;52.506;4.700;2023-05-23T04:39:11;14.97;;;7.13;;
19705;SDS011;10003;52.506;4.700;2023-05-23T04:41:39;10.30;;;5.63;;
19705;SDS011;10003;52.506;4.700;2023-05-23T04:44:09;13.50;;;6.53;;
19705;SDS011;10003;52.506;4.700;2023-05-23T04:46:39;7.77;;;5.33;;
19705;SDS011;10003;52.506;4.700;2023-05-23T04:49:08;11.83;;;6.13;;
19705;SDS011;10003;52.506;4.700;2023-05-23T04:51:39;13.50;;;5.90;;
19705;SDS011;10003;52.506;4.700;2023-05-23T04:54:10;10.77;;;6.07;;
19705;SDS011;10003;52.506;4.700;2023-05-23T04:56:38;8.67;;;4.67;;
19705;SDS011;10003;52.506;4.700;2023-05-23T04:59:07;11.77;;;5.67;;
19705;SDS011;10003;52.506;4.700;2023-05-23T05:01:36;10.33;;;4.47;;
19705;SDS011;10003;52.506;4.700;2023-05-23T05:04:06;9.50;;;5.97;;
19705;SDS011;10003;52.506;4.700;2023-05-23T05:06:34;5.30;;;3.60;;
19705;SDS011;10003;52.506;4.700;2023-05-23T05:09:04;11.30;;;5.33;;
19705;SDS011;10003;52.506;4.700;2023-05-23T05:11:33;8.73;;;4.67;;
19705;SDS011;10003;52.506;4.700;2023-05-23T05:14:01;6.97;;;4.60;;
19705;SDS011;10003;52.506;4.700;2023-05-23T05:16:30;12.30;;;5.73;;
19705;SDS011;10003;52.506;4.700;2023-05-23T05:18:58;3.60;;;2.83;;
19705;SDS011;10003;52.506;4.700;2023-05-23T05:21:27;6.00;;;3.83;;
19705;SDS011;10003;52.506;4.700;2023-05-23T05:23:56;6.33;;;3.97;;
19705;SDS011;10003;52.506;4.700;2023-05-23T05:26:27;14.07;;;4.23;;
19705;SDS011;10003;52.506;4.700;2023-05-23T05:28:56;7.60;;;3.80;;
19705;SDS011;10003;52.506;4.700;2023-05-23T05:31:24;5.07;;;3.53;;
19705;SDS011;10003;52.506;4.700;2023-05-23T05:33:53;6.07;;;2.57;;
19705;SDS011;10003;52.506;4.700;2023-05-23T05:36:21;3.07;;;2.13;;
19705;SDS011;10003;52.506;4.700;2023-05-23T05:38:50;6.93;;;4.10;;
19705;SDS011;10003;52.506;4.700;2023-05-23T05:41:18;5.23;;;3.30;;
19705;SDS011;10003;52.506;4.700;2023-05-23T05:43:48;6.50;;;3.53;;
19705;SDS011;10003;52.506;4.700;2023-05-23T05:46:17;5.60;;;3.27;;
19705;SDS011;10003;52.506;4.700;2023-05-23T05:48:45;5.60;;;3.40;;
19705;SDS011;10003;52.506;4.700;2023-05-23T05:51:14;9.87;;;4.00;;
19705;SDS011;10003;52.506;4.700;2023-05-23T05:53:42;8.37;;;3.03;;
19705;SDS011;10003;52.506;4.700;2023-05-23T05:56:11;16.93;;;5.30;;
19705;SDS011;10003;52.506;4.700;2023-05-23T05:58:40;10.07;;;3.50;;
19705;SDS011;10003;52.506;4.700;2023-05-23T06:01:10;6.53;;;3.37;;
19705;SDS011;10003;52.506;4.700;2023-05-23T06:03:41;6.03;;;2.90;;
19705;SDS011;10003;52.506;4.700;2023-05-23T06:06:10;9.87;;;3.83;;
19705;SDS011;10003;52.506;4.700;2023-05-23T06:08:40;9.80;;;3.40;;
19705;SDS011;10003;52.506;4.700;2023-05-23T06:11:08;12.13;;;3.37;;
19705;SDS011;10003;52.506;4.700;2023-05-23T06:13:38;3.40;;;1.47;;
19705;SDS011;10003;52.506;4.700;2023-05-23T06:16:07;12.07;;;3.60;;
19705;SDS011;10003;52.506;4.700;2023-05-23T06:18:37;10.23;;;3.43;;
19705;SDS011;10003;52.506;4.700;2023-05-23T06:21:05;11.50;;;3.77;;
19705;SDS011;10003;52.506;4.700;2023-05-23T06:23:34;5.83;;;3.53;;
19705;SDS011;10003;52.506;4.700;2023-05-23T06:26:03;12.37;;;5.20;;
19705;SDS011;10003;52.506;4.700;2023-05-23T06:28:33;20.07;;;3.73;;
19705;SDS011;10003;52.506;4.700;2023-05-23T06:31:01;11.13;;;3.63;;
19705;SDS011;10003;52.506;4.700;2023-05-23T06:33:30;7.80;;;3.37;;
19705;SDS011;10003;52.506;4.700;2023-05-23T06:36:01;13.07;;;3.83;;
19705;SDS011;10003;52.506;4.700;2023-05-23T06:38:30;6.97;;;3.57;;
19705;SDS011;10003;52.506;4.700;2023-05-23T06:40:59;10.03;;;4.10;;
19705;SDS011;10003;52.506;4.700;2023-05-23T06:43:29;7.60;;;3.73;;
19705;SDS011;10003;52.506;4.700;2023-05-23T06:45:57;2.40;;;1.97;;
19705;SDS011;10003;52.506;4.700;2023-05-23T06:48:26;8.40;;;2.40;;
19705;SDS011;10003;52.506;4.700;2023-05-23T06:50:54;9.33;;;4.07;;
19705;SDS011;10003;52.506;4.700;2023-05-23T06:53:27;10.77;;;3.83;;
19705;SDS011;10003;52.506;4.700;2023-05-23T06:55:55;13.40;;;5.00;;
19705;SDS011;10003;52.506;4.700;2023-05-23T06:58:24;3.63;;;2.77;;
19705;SDS011;10003;52.506;4.700;2023-05-23T07:00:52;7.20;;;2.60;;
19705;SDS011;10003;52.506;4.700;2023-05-23T07:03:21;6.53;;;2.57;;
19705;SDS011;10003;52.506;4.700;2023-05-23T07:05:50;12.43;;;4.03;;
19705;SDS011;10003;52.506;4.700;2023-05-23T07:08:18;9.17;;;3.13;;
19705;SDS011;10003;52.506;4.700;2023-05-23T07:10:49;7.60;;;3.77;;
19705;SDS011;10003;52.506;4.700;2023-05-23T07:13:17;11.97;;;3.40;;
19705;SDS011;10003;52.506;4.700;2023-05-23T07:15:46;8.07;;;2.87;;
19705;SDS011;10003;52.506;4.700;2023-05-23T07:18:14;7.93;;;3.47;;
19705;SDS011;10003;52.506;4.700;2023-05-23T07:20:44;11.57;;;4.33;;
19705;SDS011;10003;52.506;4.700;2023-05-23T07:23:12;10.77;;;3.97;;
19705;SDS011;10003;52.506;4.700;2023-05-23T07:25:41;9.23;;;3.80;;
19705;SDS011;10003;52.506;4.700;2023-05-23T07:28:29;5.87;;;3.20;;
19705;SDS011;10003;52.506;4.700;2023-05-23T07:30:57;9.97;;;3.67;;
19705;SDS011;10003;52.506;4.700;2023-05-23T07:33:26;10.97;;;4.37;;
19705;SDS011;10003;52.506;4.700;2023-05-23T07:35:55;11.37;;;4.50;;
19705;SDS011;10003;52.506;4.700;2023-05-23T07:38:25;10.57;;;3.77;;
19705;SDS011;10003;52.506;4.700;2023-05-23T07:40:53;14.20;;;4.47;;
19705;SDS011;10003;52.506;4.700;2023-05-23T07:43:38;16.93;;;4.00;;
19705;SDS011;10003;52.506;4.700;2023-05-23T07:46:07;10.93;;;3.80;;
19705;SDS011;10003;52.506;4.700;2023-05-23T07:48:36;8.83;;;3.40;;
19705;SDS011;10003;52.506;4.700;2023-05-23T07:51:04;9.40;;;3.77;;
19705;SDS011;10003;52.506;4.700;2023-05-23T07:53:33;9.33;;;3.40;;
19705;SDS011;10003;52.506;4.700;2023-05-23T07:56:05;9.97;;;3.20;;
19705;SDS011;10003;52.506;4.700;2023-05-23T07:58:34;13.00;;;4.13;;
19705;SDS011;10003;52.506;4.700;2023-05-23T08:01:04;5.70;;;2.37;;
19705;SDS011;10003;52.506;4.700;2023-05-23T08:03:34;6.97;;;3.00;;
19705;SDS011;10003;52.506;4.700;2023-05-23T08:06:03;13.27;;;3.73;;
19705;SDS011;10003;52.506;4.700;2023-05-23T08:08:32;2.83;;;2.00;;
19705;SDS011;10003;52.506;4.700;2023-05-23T08:11:01;8.00;;;2.67;;
19705;SDS011;10003;52.506;4.700;2023-05-23T08:13:30;4.57;;;2.33;;
19705;SDS011;10003;52.506;4.700;2023-05-23T08:15:58;8.33;;;3.43;;
19705;SDS011;10003;52.506;4.700;2023-05-23T08:18:28;7.57;;;3.67;;
19705;SDS011;10003;52.506;4.700;2023-05-23T08:20:57;8.37;;;2.87;;
19705;SDS011;10003;52.506;4.700;2023-05-23T08:23:28;9.83;;;2.67;;
19705;SDS011;10003;52.506;4.700;2023-05-23T08:25:57;8.10;;;4.03;;
19705;SDS011;10003;52.506;4.700;2023-05-23T08:28:25;8.53;;;3.80;;
19705;SDS011;10003;52.506;4.700;2023-05-23T08:30:54;7.47;;;3.90;;
19705;SDS011;10003;52.506;4.700;2023-05-23T08:33:23;7.27;;;3.30;;
19705;SDS011;10003;52.506;4.700;2023-05-23T08:35:53;9.07;;;3.33;;
19705;SDS011;10003;52.506;4.700;2023-05-23T08:38:23;6.77;;;3.13;;
19705;SDS011;10003;52.506;4.700;2023-05-23T08:40:52;6.23;;;3.10;;
19705;SDS011;10003;52.506;4.700;2023-05-23T08:43:22;10.80;;;3.07;;
19705;SDS011;10003;52.506;4.700;2023-05-23T08:45:50;4.63;;;3.03;;
19705;SDS011;10003;52.506;4.700;2023-05-23T08:48:19;7.53;;;3.97;;
19705;SDS011;10003;52.506;4.700;2023-05-23T08:50:49;11.97;;;3.53;;
19705;SDS011;10003;52.506;4.700;2023-05-23T08:53:19;12.03;;;3.83;;
19705;SDS011;10003;52.506;4.700;2023-05-23T08:55:48;5.67;;;3.60;;
19705;SDS011;10003;52.506;4.700;2023-05-23T08:58:17;9.03;;;3.23;;
19705;SDS011;10003;52.506;4.700;2023-05-23T09:00:47;9.70;;;4.57;;
19705;SDS011;10003;52.506;4.700;2023-05-23T09:03:16;8.37;;;3.47;;
19705;SDS011;10003;52.506;4.700;2023-05-23T09:05:46;8.53;;;3.00;;
19705;SDS011;10003;52.506;4.700;2023-05-23T09:08:15;5.43;;;2.30;;
19705;SDS011;10003;52.506;4.700;2023-05-23T09:10:49;6.50;;;3.10;;
19705;SDS011;10003;52.506;4.700;2023-05-23T09:13:18;10.77;;;4.30;;
19705;SDS011;10003;52.506;4.700;2023-05-23T09:16:02;8.10;;;3.53;;
19705;SDS011;10003;52.506;4.700;2023-05-23T09:18:36;14.10;;;3.93;;
19705;SDS011;10003;52.506;4.700;2023-05-23T09:21:05;6.67;;;3.20;;
19705;SDS011;10003;52.506;4.700;2023-05-23T09:23:33;14.13;;;3.73;;
19705;SDS011;10003;52.506;4.700;2023-05-23T09:26:03;9.23;;;3.53;;
19705;SDS011;10003;52.506;4.700;2023-05-23T09:28:36;7.00;;;3.30;;
19705;SDS011;10003;52.506;4.700;2023-05-23T09:31:06;12.03;;;3.53;;
19705;SDS011;10003;52.506;4.700;2023-05-23T09:33:38;7.93;;;2.73;;
19705;SDS011;10003;52.506;4.700;2023-05-23T09:36:07;13.03;;;3.90;;
19705;SDS011;10003;52.506;4.700;2023-05-23T09:38:36;7.33;;;3.10;;
19705;SDS011;10003;52.506;4.700;2023-05-23T09:41:07;4.87;;;2.27;;
19705;SDS011;10003;52.506;4.700;2023-05-23T09:43:37;11.17;;;3.27;;
19705;SDS011;10003;52.506;4.700;2023-05-23T09:46:06;2.77;;;1.30;;
19705;SDS011;10003;52.506;4.700;2023-05-23T09:48:35;6.40;;;2.50;;
19705;SDS011;10003;52.506;4.700;2023-05-23T09:51:04;6.63;;;2.80;;
19705;SDS011;10003;52.506;4.700;2023-05-23T09:53:32;7.37;;;2.87;;
19705;SDS011;10003;52.506;4.700;2023-05-23T09:56:01;4.17;;;2.47;;
19705;SDS011;10003;52.506;4.700;2023-05-23T09:58:32;5.67;;;1.63;;
19705;SDS011;10003;52.506;4.700;2023-05-23T10:01:05;10.63;;;3.50;;
19705;SDS011;10003;52.506;4.700;2023-05-23T10:03:36;11.40;;;3.50;;
19705;SDS011;10003;52.506;4.700;2023-05-23T10:06:07;5.47;;;2.43;;
19705;SDS011;10003;52.506;4.700;2023-05-23T10:08:38;7.53;;;2.83;;
19705;SDS011;10003;52.506;4.700;2023-05-23T10:14:01;14.50;;;3.43;;
19705;SDS011;10003;52.506;4.700;2023-05-23T10:16:34;7.53;;;2.80;;
19705;SDS011;10003;52.506;4.700;2023-05-23T10:19:05;11.83;;;2.97;;
19705;SDS011;10003;52.506;4.700;2023-05-23T10:21:35;4.83;;;2.83;;
19705;SDS011;10003;52.506;4.700;2023-05-23T10:24:08;5.10;;;2.77;;
19705;SDS011;10003;52.506;4.700;2023-05-23T10:26:37;4.20;;;2.07;;
19705;SDS011;10003;52.506;4.700;2023-05-23T10:29:07;6.00;;;2.00;;
19705;SDS011;10003;52.506;4.700;2023-05-23T10:31:35;13.43;;;3.23;;
19705;SDS011;10003;52.506;4.700;2023-05-23T10:34:07;2.70;;;1.87;;
19705;SDS011;10003;52.506;4.700;2023-05-23T10:36:47;5.10;;;2.73;;
19705;SDS011;10003;52.506;4.700;2023-05-23T10:39:21;4.13;;;1.87;;
19705;SDS011;10003;52.506;4.700;2023-05-23T10:41:54;4.70;;;3.40;;
19705;SDS011;10003;52.506;4.700;2023-05-23T10:44:27;15.23;;;3.23;;
19705;SDS011;10003;52.506;4.700;2023-05-23T10:46:56;6.37;;;2.80;;
19705;SDS011;10003;52.506;4.700;2023-05-23T10:49:37;12.20;;;3.97;;
19705;SDS011;10003;52.506;4.700;2023-05-23T10:52:05;12.70;;;3.90;;
19705;SDS011;10003;52.506;4.700;2023-05-23T10:54:34;5.40;;;2.50;;
19705;SDS011;10003;52.506;4.700;2023-05-23T10:57:03;9.20;;;4.80;;
19705;SDS011;10003;52.506;4.700;2023-05-23T10:59:34;10.90;;;3.40;;
19705;SDS011;10003;52.506;4.700;2023-05-23T11:02:04;5.67;;;3.00;;
19705;SDS011;10003;52.506;4.700;2023-05-23T11:04:36;7.60;;;3.57;;
19705;SDS011;10003;52.506;4.700;2023-05-23T11:07:05;12.53;;;2.93;;
19705;SDS011;10003;52.506;4.700;2023-05-23T11:10:03;7.23;;;3.27;;
19705;SDS011;10003;52.506;4.700;2023-05-23T11:12:36;5.90;;;2.30;;
19705;SDS011;10003;52.506;4.700;2023-05-23T11:15:19;22.27;;;1.90;;
19705;SDS011;10003;52.506;4.700;2023-05-23T11:17:49;8.90;;;1.93;;
19705;SDS011;10003;52.506;4.700;2023-05-23T11:20:18;7.90;;;3.17;;
19705;SDS011;10003;52.506;4.700;2023-05-23T11:22:58;3.27;;;2.60;;
19705;SDS011;10003;52.506;4.700;2023-05-23T11:25:40;6.23;;;3.17;;
19705;SDS011;10003;52.506;4.700;2023-05-23T11:28:09;8.47;;;2.37;;
19705;SDS011;10003;52.506;4.700;2023-05-23T11:30:39;7.50;;;2.73;;
19705;SDS011;10003;52.506;4.700;2023-05-23T11:33:09;7.53;;;2.50;;
19705;SDS011;10003;52.506;4.700;2023-05-23T11:35:39;4.83;;;2.17;;
19705;SDS011;10003;52.506;4.700;2023-05-23T11:38:08;9.63;;;3.10;;
19705;SDS011;10003;52.506;4.700;2023-05-23T11:40:37;5.80;;;2.60;;
19705;SDS011;10003;52.506;4.700;2023-05-23T11:43:08;12.73;;;2.63;;
19705;SDS011;10003;52.506;4.700;2023-05-23T11:45:38;8.43;;;2.93;;
19705;SDS011;10003;52.506;4.700;2023-05-23T11:48:08;1.10;;;0.93;;
19705;SDS011;10003;52.506;4.700;2023-05-23T11:50:44;9.00;;;3.57;;
19705;SDS011;10003;52.506;4.700;2023-05-23T11:53:13;10.40;;;2.33;;
19705;SDS011;10003;52.506;4.700;2023-05-23T11:55:47;4.00;;;2.40;;
19705;SDS011;10003;52.506;4.700;2023-05-23T11:58:16;9.20;;;2.77;;
19705;SDS011;10003;52.506;4.700;2023-05-23T12:00:45;8.73;;;2.87;;
19705;SDS011;10003;52.506;4.700;2023-05-23T12:03:15;9.27;;;2.60;;
19705;SDS011;10003;52.506;4.700;2023-05-23T12:05:44;6.77;;;2.37;;
19705;SDS011;10003;52.506;4.700;2023-05-23T12:08:12;5.13;;;1.97;;
19705;SDS011;10003;52.506;4.700;2023-05-23T12:10:48;6.03;;;1.97;;
19705;SDS011;10003;52.506;4.700;2023-05-23T12:13:18;6.57;;;2.60;;
19705;SDS011;10003;52.506;4.700;2023-05-23T12:15:51;6.33;;;2.73;;
19705;SDS011;10003;52.506;4.700;2023-05-23T12:18:24;9.73;;;3.50;;
19705;SDS011;10003;52.506;4.700;2023-05-23T12:20:58;7.27;;;2.87;;
19705;SDS011;10003;52.506;4.700;2023-05-23T12:23:27;4.27;;;1.80;;
19705;SDS011;10003;52.506;4.700;2023-05-23T12:26:00;2.33;;;2.23;;
19705;SDS011;10003;52.506;4.700;2023-05-23T12:28:35;3.73;;;2.13;;
19705;SDS011;10003;52.506;4.700;2023-05-23T12:31:08;3.77;;;1.90;;
19705;SDS011;10003;52.506;4.700;2023-05-23T12:33:39;9.70;;;1.87;;
19705;SDS011;10003;52.506;4.700;2023-05-23T12:36:09;1.80;;;1.53;;
19705;SDS011;10003;52.506;4.700;2023-05-23T12:38:38;3.40;;;2.13;;
19705;SDS011;10003;52.506;4.700;2023-05-23T12:41:11;2.37;;;1.67;;
19705;SDS011;10003;52.506;4.700;2023-05-23T12:43:48;9.50;;;3.07;;
19705;SDS011;10003;52.506;4.700;2023-05-23T12:46:17;7.67;;;3.33;;
19705;SDS011;10003;52.506;4.700;2023-05-23T12:48:47;5.60;;;1.93;;
19705;SDS011;10003;52.506;4.700;2023-05-23T12:51:17;2.70;;;1.93;;
19705;SDS011;10003;52.506;4.700;2023-05-23T12:53:46;4.17;;;2.10;;
19705;SDS011;10003;52.506;4.700;2023-05-23T12:56:17;11.90;;;2.97;;
19705;SDS011;10003;52.506;4.700;2023-05-23T12:58:46;1.50;;;1.40;;
19705;SDS011;10003;52.506;4.700;2023-05-23T13:01:15;3.53;;;2.87;;
19705;SDS011;10003;52.506;4.700;2023-05-23T13:03:44;7.43;;;3.10;;
19705;SDS011;10003;52.506;4.700;2023-05-23T13:06:14;6.77;;;2.30;;
19705;SDS011;10003;52.506;4.700;2023-05-23T13:08:42;6.03;;;2.63;;
19705;SDS011;10003;52.506;4.700;2023-05-23T13:11:12;5.93;;;1.83;;
19705;SDS011;10003;52.506;4.700;2023-05-23T13:13:50;8.10;;;2.40;;
19705;SDS011;10003;52.506;4.700;2023-05-23T13:16:20;3.40;;;2.70;;
19705;SDS011;10003;52.506;4.700;2023-05-23T13:18:49;1.60;;;1.50;;
19705;SDS011;10003;52.506;4.700;2023-05-23T13:21:19;5.20;;;1.63;;
19705;SDS011;10003;52.506;4.700;2023-05-23T13:23:48;2.80;;;1.77;;
19705;SDS011;10003;52.506;4.700;2023-05-23T13:26:17;4.20;;;2.67;;
19705;SDS011;10003;52.506;4.700;2023-05-23T13:28:47;7.63;;;2.40;;
19705;SDS011;10003;52.506;4.700;2023-05-23T13:31:15;12.03;;;2.73;;
19705;SDS011;10003;52.506;4.700;2023-05-23T13:33:45;1.87;;;1.50;;
19705;SDS011;10003;52.506;4.700;2023-05-23T13:36:14;4.53;;;2.50;;
19705;SDS011;10003;52.506;4.700;2023-05-23T13:38:44;5.83;;;3.43;;
19705;SDS011;10003;52.506;4.700;2023-05-23T13:41:13;7.90;;;2.43;;
19705;SDS011;10003;52.506;4.700;2023-05-23T13:43:42;5.60;;;2.57;;
19705;SDS011;10003;52.506;4.700;2023-05-23T13:46:11;1.67;;;1.57;;
19705;SDS011;10003;52.506;4.700;2023-05-23T13:48:40;5.47;;;2.63;;
19705;SDS011;10003;52.506;4.700;2023-05-23T13:51:09;4.50;;;1.57;;
19705;SDS011;10003;52.506;4.700;2023-05-23T13:53:38;4.00;;;2.30;;
19705;SDS011;10003;52.506;4.700;2023-05-23T13:56:08;9.27;;;3.33;;
19705;SDS011;10003;52.506;4.700;2023-05-23T13:58:37;8.57;;;3.07;;
19705;SDS011;10003;52.506;4.700;2023-05-23T14:01:08;4.03;;;2.93;;
19705;SDS011;10003;52.506;4.700;2023-05-23T14:03:37;13.93;;;2.53;;
19705;SDS011;10003;52.506;4.700;2023-05-23T14:06:06;6.83;;;2.53;;
19705;SDS011;10003;52.506;4.700;2023-05-23T14:08:35;4.40;;;1.93;;
19705;SDS011;10003;52.506;4.700;2023-05-23T14:11:04;8.67;;;2.50;;
19705;SDS011;10003;52.506;4.700;2023-05-23T14:13:35;8.67;;;2.57;;
19705;SDS011;10003;52.506;4.700;2023-05-23T14:16:03;2.80;;;2.23;;
19705;SDS011;10003;52.506;4.700;2023-05-23T14:18:32;2.17;;;1.83;;
19705;SDS011;10003;52.506;4.700;2023-05-23T14:21:04;2.80;;;2.07;;
19705;SDS011;10003;52.506;4.700;2023-05-23T14:23:32;5.33;;;4.10;;
19705;SDS011;10003;52.506;4.700;2023-05-23T14:26:02;8.30;;;2.30;;
19705;SDS011;10003;52.506;4.700;2023-05-23T14:28:30;7.63;;;3.67;;
19705;SDS011;10003;52.506;4.700;2023-05-23T14:31:01;4.43;;;1.97;;
19705;SDS011;10003;52.506;4.700;2023-05-23T14:33:29;3.87;;;2.50;;
19705;SDS011;10003;52.506;4.700;2023-05-23T14:35:59;6.83;;;2.20;;
19705;SDS011;10003;52.506;4.700;2023-05-23T14:38:27;7.67;;;3.30;;
19705;SDS011;10003;52.506;4.700;2023-05-23T14:40:56;6.53;;;2.93;;
19705;SDS011;10003;52.506;4.700;2023-05-23T14:43:25;7.07;;;1.87;;
19705;SDS011;10003;52.506;4.700;2023-05-23T14:45:54;11.17;;;3.20;;
19705;SDS011;10003;52.506;4.700;2023-05-23T14:48:24;2.67;;;1.87;;
19705;SDS011;10003;52.506;4.700;2023-05-23T14:50:53;3.40;;;1.60;;
19705;SDS011;10003;52.506;4.700;2023-05-23T14:53:22;7.30;;;1.90;;
19705;SDS011;10003;52.506;4.700;2023-05-23T14:55:52;8.37;;;2.80;;
19705;SDS011;10003;52.506;4.700;2023-05-23T14:58:21;5.77;;;2.57;;
19705;SDS011;10003;52.506;4.700;2023-05-23T15:00:51;4.97;;;2.53;;